createdAt,value
2023-03-13T00:01:44.011Z,100.00
2023-03-13T00:04:11.739Z,100.00
2023-03-13T00:06:44.722Z,100.00
2023-03-13T00:09:15.850Z,100.00
2023-03-13T00:11:44.802Z,100.00
2023-03-13T00:14:13.246Z,100.00
2023-03-13T00:16:44.228Z,100.00
2023-03-13T00:19:12.362Z,100.00
2023-03-13T00:21:41.406Z,100.00
2023-03-13T00:24:15.718Z,100.00
2023-03-13T00:26:43.275Z,100.00
2023-03-13T00:29:10.853Z,100.00
2023-03-13T00:31:45.353Z,100.00
2023-03-13T00:34:13.135Z,100.00
2023-03-13T00:36:40.841Z,100.00
2023-03-13T00:39:14.092Z,100.00
2023-03-13T00:41:41.802Z,100.00
2023-03-13T00:44:13.819Z,100.00
2023-03-13T00:46:43.382Z,100.00
2023-03-13T00:49:11.098Z,100.00
2023-03-13T00:51:42.545Z,100.00
2023-03-13T00:54:10.228Z,100.00
2023-03-13T00:56:42.398Z,100.00
2023-03-13T00:59:10.309Z,100.00
2023-03-13T01:01:38.110Z,100.00
2023-03-13T01:04:07.471Z,100.00
2023-03-13T01:06:36.467Z,100.00
2023-03-13T01:09:05.161Z,100.00
2023-03-13T01:11:35.500Z,100.00
2023-03-13T01:14:05.748Z,100.00
2023-03-13T01:16:38.406Z,100.00
2023-03-13T01:19:13.110Z,100.00
2023-03-13T01:21:42.174Z,100.00
2023-03-13T01:24:10.300Z,100.00
2023-03-13T01:26:40.498Z,100.00
2023-03-13T01:29:08.016Z,100.00
2023-03-13T01:31:36.337Z,100.00
2023-03-13T01:34:06.206Z,100.00
2023-03-13T01:36:36.897Z,100.00
2023-03-13T01:39:05.150Z,100.00
2023-03-13T01:41:42.013Z,100.00
2023-03-13T01:44:24.753Z,100.00
2023-03-13T01:46:52.711Z,100.00
2023-03-13T01:49:33.372Z,100.00
2023-03-13T01:52:03.997Z,100.00
2023-03-13T01:54:35.272Z,100.00
2023-03-13T01:57:08.762Z,100.00
2023-03-13T01:59:46.356Z,100.00
2023-03-13T02:02:17.353Z,100.00
2023-03-13T02:04:47.474Z,100.00
2023-03-13T02:07:21.816Z,100.00
2023-03-13T02:09:52.209Z,100.00
2023-03-13T02:12:36.698Z,100.00
2023-03-13T02:15:15.924Z,100.00
2023-03-13T02:17:43.529Z,100.00
2023-03-13T02:20:13.379Z,100.00
2023-03-13T02:23:02.160Z,100.00
2023-03-13T02:25:42.296Z,100.00
2023-03-13T02:28:25.322Z,100.00
2023-03-13T02:30:58.892Z,100.00
2023-03-13T02:33:31.830Z,100.00
2023-03-13T02:35:59.999Z,100.00
2023-03-13T02:38:29.347Z,100.00
2023-03-13T02:40:57.042Z,100.00
2023-03-13T02:43:27.728Z,100.00
2023-03-13T02:46:05.742Z,100.00
2023-03-13T02:48:42.585Z,100.00
2023-03-13T02:51:32.945Z,100.00
2023-03-13T02:54:12.463Z,100.00
2023-03-13T02:56:42.331Z,100.00
2023-03-13T02:59:09.752Z,100.00
2023-03-13T03:01:37.676Z,100.00
2023-03-13T03:04:05.307Z,100.00
2023-03-13T03:06:36.315Z,100.00
2023-03-13T03:09:03.980Z,100.00
2023-03-13T03:11:31.501Z,100.00
2023-03-13T03:13:59.281Z,100.00
2023-03-13T03:16:27.081Z,100.00
2023-03-13T03:18:55.803Z,100.00
2023-03-13T03:21:24.166Z,100.00
2023-03-13T03:23:51.847Z,100.00
2023-03-13T03:26:19.339Z,100.00
2023-03-13T03:28:46.827Z,100.00
2023-03-13T03:31:19.723Z,100.00
2023-03-13T03:33:47.759Z,100.00
2023-03-13T03:36:17.863Z,100.00
2023-03-13T03:38:45.984Z,100.00
2023-03-13T03:41:14.864Z,100.00
2023-03-13T03:43:42.694Z,100.00
2023-03-13T03:46:10.282Z,100.00
2023-03-13T03:48:39.128Z,100.00
2023-03-13T03:51:07.994Z,100.00
2023-03-13T03:53:38.530Z,100.00
2023-03-13T03:56:07.028Z,100.00
2023-03-13T03:58:34.416Z,100.00
2023-03-13T04:01:02.127Z,100.00
2023-03-13T04:03:30.391Z,100.00
2023-03-13T04:06:00.102Z,100.00
2023-03-13T04:08:27.605Z,100.00
2023-03-13T04:10:58.131Z,100.00
2023-03-13T04:13:26.039Z,100.00
2023-03-13T04:15:53.517Z,100.00
2023-03-13T04:18:21.094Z,100.00
2023-03-13T04:20:48.913Z,100.00
2023-03-13T04:23:16.681Z,100.00
2023-03-13T04:25:44.794Z,100.00
2023-03-13T04:28:12.327Z,100.00
2023-03-13T04:30:39.878Z,100.00
2023-03-13T04:33:27.317Z,100.00
2023-03-13T04:35:58.828Z,100.00
2023-03-13T04:38:26.738Z,100.00
2023-03-13T04:40:54.177Z,100.00
2023-03-13T04:43:22.778Z,100.00
2023-03-13T04:45:55.273Z,100.00
2023-03-13T04:48:26.973Z,100.00
2023-03-13T04:51:00.007Z,100.00
2023-03-13T04:53:28.241Z,100.00
2023-03-13T04:55:56.561Z,100.00
2023-03-13T04:58:25.320Z,100.00
2023-03-13T05:01:00.425Z,100.00
2023-03-13T05:03:30.031Z,100.00
2023-03-13T05:06:00.490Z,100.00
2023-03-13T05:08:41.650Z,100.00
2023-03-13T05:11:13.804Z,100.00
2023-03-13T05:13:41.234Z,100.00
2023-03-13T05:16:10.710Z,100.00
2023-03-13T05:18:39.976Z,100.00
2023-03-13T05:21:21.816Z,100.00
2023-03-13T05:23:51.237Z,100.00
2023-03-13T05:26:26.167Z,100.00
2023-03-13T05:29:02.651Z,100.00
2023-03-13T05:31:30.309Z,100.00
2023-03-13T05:33:58.751Z,100.00
2023-03-13T05:36:26.459Z,100.00
2023-03-13T05:38:56.673Z,100.00
2023-03-13T05:41:33.541Z,100.00
2023-03-13T05:44:02.595Z,100.00
2023-03-13T05:49:38.438Z,100.00
2023-03-13T05:52:12.944Z,100.00
2023-03-13T05:54:48.940Z,100.00
2023-03-13T05:57:16.446Z,99.19
2023-03-13T06:00:00.667Z,98.58
2023-03-13T06:02:34.616Z,98.32
2023-03-13T06:05:02.399Z,98.06
2023-03-13T06:07:30.244Z,97.15
2023-03-13T06:10:20.388Z,97.10
2023-03-13T06:12:55.614Z,96.00
2023-03-13T06:15:25.096Z,92.77
2023-03-13T06:17:56.255Z,90.11
2023-03-13T06:20:24.401Z,89.01
2023-03-13T06:22:58.215Z,88.22
2023-03-13T06:25:26.576Z,88.28
2023-03-13T06:27:54.676Z,85.90
2023-03-13T06:30:23.969Z,86.99
2023-03-13T06:32:51.999Z,83.57
2023-03-13T06:35:20.040Z,80.85
2023-03-13T06:37:48.524Z,79.93
2023-03-13T06:40:26.767Z,79.07
2023-03-13T06:42:57.559Z,79.16
2023-03-13T06:45:27.480Z,76.33
2023-03-13T06:48:01.982Z,77.93
2023-03-13T06:50:31.473Z,76.76
2023-03-13T06:53:00.406Z,74.55
2023-03-13T06:55:29.508Z,68.73
2023-03-13T06:58:00.239Z,71.35
2023-03-13T07:00:42.451Z,70.30
2023-03-13T07:03:15.844Z,66.93
2023-03-13T07:05:58.496Z,68.99
2023-03-13T07:08:33.263Z,64.29
2023-03-13T07:11:21.314Z,62.15
2023-03-13T07:14:00.462Z,62.48
2023-03-13T07:16:42.281Z,62.89
2023-03-13T07:19:22.120Z,61.08
2023-03-13T07:22:22.474Z,56.79
2023-03-13T07:25:09.429Z,56.22
2023-03-13T07:27:51.500Z,53.09
2023-03-13T07:30:30.731Z,53.51
2023-03-13T07:33:07.992Z,52.85
2023-03-13T07:35:41.227Z,51.38
2023-03-13T07:38:12.649Z,53.00
2023-03-13T07:43:30.709Z,51.74
2023-03-13T07:46:07.420Z,48.58
2023-03-13T07:48:44.078Z,43.84
2023-03-13T07:51:30.299Z,42.43
2023-03-13T07:54:22.900Z,37.87
2023-03-13T07:57:16.229Z,35.98
2023-03-13T07:59:44.607Z,32.06
2023-03-13T08:02:14.736Z,30.93
2023-03-13T08:04:43.400Z,30.48
2023-03-13T08:07:12.799Z,30.69
2023-03-13T08:09:41.670Z,31.02
2023-03-13T08:12:13.585Z,30.52
2023-03-13T08:14:48.639Z,30.31
2023-03-13T08:17:25.057Z,29.58
2023-03-13T08:20:13.565Z,29.30
2023-03-13T08:23:06.360Z,29.09
2023-03-13T08:25:47.384Z,28.76
2023-03-13T08:28:23.577Z,28.65
2023-03-13T08:31:50.630Z,27.80
2023-03-13T08:34:23.038Z,26.77
2023-03-13T08:36:53.403Z,26.50
2023-03-13T08:42:26.188Z,25.40
2023-03-13T08:48:32.667Z,23.73
2023-03-13T08:51:47.592Z,25.17
2023-03-13T08:58:02.645Z,23.43
2023-03-13T09:00:31.060Z,23.72
2023-03-13T09:03:02.816Z,24.85
2023-03-13T09:06:02.782Z,24.93
2023-03-13T09:09:06.142Z,24.45
2023-03-13T09:11:47.095Z,23.25
2023-03-13T09:14:28.985Z,25.32
2023-03-13T09:20:08.381Z,24.51
2023-03-13T09:22:52.959Z,23.73
2023-03-13T09:25:20.407Z,24.74
2023-03-13T09:27:49.832Z,24.61
2023-03-13T09:30:17.353Z,25.19
2023-03-13T09:32:44.685Z,24.92
2023-03-13T09:35:11.987Z,23.64
2023-03-13T09:37:39.396Z,23.46
2023-03-13T09:40:08.524Z,24.04
2023-03-13T09:42:50.084Z,22.81
2023-03-13T09:45:28.490Z,22.32
2023-03-13T09:47:58.545Z,22.61
2023-03-13T09:50:27.738Z,23.23
2023-03-13T09:52:59.649Z,22.28
2023-03-13T09:55:32.248Z,21.57
2023-03-13T09:58:00.692Z,22.14
2023-03-13T10:00:31.173Z,22.07
2023-03-13T10:03:07.684Z,22.48
2023-03-13T10:05:36.969Z,22.15
2023-03-13T10:08:19.329Z,21.87
2023-03-13T10:10:48.684Z,21.73
2023-03-13T10:13:23.616Z,21.46
2023-03-13T10:15:55.981Z,22.03
2023-03-13T10:18:23.865Z,21.71
2023-03-13T10:20:53.113Z,21.67
2023-03-13T10:23:40.855Z,21.14
2023-03-13T10:26:15.212Z,20.72
2023-03-13T10:28:42.530Z,20.93
2023-03-13T10:31:17.912Z,21.13
2023-03-13T10:33:46.667Z,21.03
2023-03-13T10:36:14.012Z,20.35
2023-03-13T10:38:51.962Z,20.86
2023-03-13T10:41:33.643Z,21.55
2023-03-13T10:44:05.119Z,21.54
2023-03-13T10:46:35.441Z,21.74
2023-03-13T10:49:04.700Z,21.54
2023-03-13T10:51:37.560Z,22.48
2023-03-13T10:54:23.017Z,21.96
2023-03-13T10:56:51.200Z,21.54
2023-03-13T10:59:21.344Z,21.31
2023-03-13T11:01:49.066Z,21.41
2023-03-13T11:04:32.751Z,20.88
2023-03-13T11:07:06.336Z,20.92
2023-03-13T11:09:35.433Z,20.82
2023-03-13T11:12:05.666Z,21.99
2023-03-13T11:14:32.974Z,22.29
2023-03-13T11:17:29.070Z,22.36
2023-03-13T11:19:58.722Z,22.87
2023-03-13T11:23:21.204Z,23.73
2023-03-13T11:25:51.291Z,23.64
2023-03-13T11:28:26.810Z,22.81
2023-03-13T11:30:54.365Z,22.23
2023-03-13T11:33:30.559Z,22.27
2023-03-13T11:36:01.875Z,22.70
2023-03-13T11:38:37.472Z,22.25
2023-03-13T11:41:43.863Z,22.66
2023-03-13T11:44:30.580Z,22.16
2023-03-13T11:47:19.590Z,22.62
2023-03-13T11:50:11.004Z,22.27
2023-03-13T11:53:13.877Z,22.20
2023-03-13T11:55:59.286Z,22.62
2023-03-13T11:58:39.059Z,22.53
2023-03-13T12:01:09.560Z,22.81
2023-03-13T12:03:39.365Z,23.41
2023-03-13T12:06:15.892Z,22.58
2023-03-13T12:08:50.958Z,22.06
2023-03-13T12:11:26.823Z,22.35
2023-03-13T12:13:58.941Z,22.60
2023-03-13T12:17:04.156Z,22.33
2023-03-13T12:19:49.480Z,22.74
2023-03-13T12:22:23.368Z,23.26
2023-03-13T12:25:00.443Z,22.91
2023-03-13T12:27:32.858Z,22.37
2023-03-13T12:30:18.207Z,22.69
2023-03-13T12:32:50.199Z,22.62
2023-03-13T12:35:33.306Z,22.85
2023-03-13T12:38:19.183Z,24.08
2023-03-13T12:41:13.064Z,23.60
2023-03-13T12:43:40.822Z,23.76
2023-03-13T12:46:37.195Z,24.01
2023-03-13T12:49:27.639Z,23.07
2023-03-13T12:52:18.164Z,24.30
2023-03-13T12:55:11.993Z,25.29
2023-03-13T12:58:08.117Z,24.99
2023-03-13T13:00:35.639Z,25.72
2023-03-13T13:03:16.377Z,26.61
2023-03-13T13:06:02.006Z,26.67
2023-03-13T13:08:33.995Z,25.92
2023-03-13T13:11:39.277Z,25.52
2023-03-13T13:14:17.020Z,24.61
2023-03-13T13:16:58.677Z,25.67
2023-03-13T13:19:25.905Z,25.95
2023-03-13T13:22:31.089Z,26.09
2023-03-13T13:24:59.792Z,25.74
2023-03-13T13:27:36.444Z,26.05
2023-03-13T13:30:04.760Z,25.57
2023-03-13T13:32:41.612Z,25.15
2023-03-13T13:35:33.904Z,27.09
2023-03-13T13:38:21.648Z,27.55
2023-03-13T13:41:11.287Z,26.50
2023-03-13T13:43:50.891Z,27.44
2023-03-13T13:46:31.420Z,27.39
2023-03-13T13:49:07.602Z,27.74
2023-03-13T13:51:42.756Z,26.92
2023-03-13T13:54:13.040Z,27.13
2023-03-13T13:56:47.157Z,27.23
2023-03-13T13:59:20.465Z,28.26
2023-03-13T14:01:48.959Z,28.32
2023-03-13T14:04:28.667Z,28.28
2023-03-13T14:06:57.777Z,30.34
2023-03-13T14:09:36.352Z,29.17
2023-03-13T14:12:25.262Z,27.31
2023-03-13T14:15:17.474Z,27.40
2023-03-13T14:17:54.287Z,26.32
2023-03-13T14:20:33.467Z,26.01
2023-03-13T14:23:12.202Z,26.26
2023-03-13T14:25:46.852Z,25.80
2023-03-13T14:28:21.464Z,25.01
2023-03-13T14:30:50.465Z,25.28
2023-03-13T14:33:17.783Z,26.34
2023-03-13T14:35:45.149Z,27.90
2023-03-13T14:38:23.959Z,29.02
2023-03-13T14:40:52.046Z,28.85
2023-03-13T14:43:40.844Z,28.90
2023-03-13T14:46:30.692Z,26.94
2023-03-13T14:49:06.639Z,26.59
2023-03-13T14:51:34.301Z,26.80
2023-03-13T14:54:02.368Z,26.69
2023-03-13T14:56:42.638Z,26.39
2023-03-13T14:59:18.250Z,28.15
2023-03-13T15:01:45.925Z,30.34
2023-03-13T15:04:14.995Z,30.48
2023-03-13T15:06:42.809Z,31.51
2023-03-13T15:09:09.926Z,32.30
2023-03-13T15:11:54.835Z,31.16
2023-03-13T15:14:38.830Z,31.97
2023-03-13T15:17:14.089Z,31.58
2023-03-13T15:19:42.111Z,34.47
2023-03-13T15:22:12.824Z,33.12
2023-03-13T15:24:56.189Z,33.98
2023-03-13T15:27:33.111Z,33.94
2023-03-13T15:30:01.926Z,34.23
2023-03-13T15:32:31.116Z,36.63
2023-03-13T15:34:58.666Z,36.55
2023-03-13T15:37:26.256Z,36.71
2023-03-13T15:39:53.890Z,38.04
2023-03-13T15:42:24.208Z,38.68
2023-03-13T15:44:51.710Z,39.70
2023-03-13T15:47:21.463Z,40.29
2023-03-13T15:49:49.448Z,40.13
2023-03-13T15:52:22.682Z,39.95
2023-03-13T15:54:50.544Z,41.98
2023-03-13T15:57:23.304Z,43.07
2023-03-13T15:59:51.595Z,44.46
2023-03-13T16:02:21.346Z,45.07
2023-03-13T16:04:48.683Z,45.56
2023-03-13T16:07:18.656Z,46.13
2023-03-13T16:09:45.926Z,46.01
2023-03-13T16:12:14.157Z,45.31
2023-03-13T16:14:42.931Z,48.60
2023-03-13T16:17:17.390Z,49.04
2023-03-13T16:19:45.889Z,49.81
2023-03-13T16:22:13.628Z,50.51
2023-03-13T16:24:41.147Z,50.93
2023-03-13T16:27:18.563Z,51.72
2023-03-13T16:29:46.682Z,52.20
2023-03-13T16:32:16.489Z,52.53
2023-03-13T16:34:43.927Z,53.43
2023-03-13T16:37:15.750Z,53.78
2023-03-13T16:39:43.724Z,53.02
2023-03-13T16:42:11.431Z,54.18
2023-03-13T16:44:38.897Z,54.67
2023-03-13T16:47:28.091Z,54.40
2023-03-13T16:49:55.628Z,54.24
2023-03-13T16:52:23.083Z,54.90
2023-03-13T16:54:50.300Z,56.67
2023-03-13T16:57:19.987Z,56.31
2023-03-13T16:59:47.206Z,57.65
2023-03-13T17:02:15.842Z,56.71
2023-03-13T17:04:44.997Z,57.15
2023-03-13T17:07:23.376Z,57.60
2023-03-13T17:09:51.067Z,57.69
2023-03-13T17:12:19.048Z,58.20
2023-03-13T17:14:46.409Z,59.07
2023-03-13T17:17:20.496Z,58.80
2023-03-13T17:19:47.810Z,59.23
2023-03-13T17:22:19.682Z,60.16
2023-03-13T17:24:48.582Z,60.38
2023-03-13T17:27:18.679Z,61.36
2023-03-13T17:29:46.003Z,61.33
2023-03-13T17:32:14.245Z,60.97
2023-03-13T17:34:45.655Z,61.46
2023-03-13T17:37:20.983Z,62.35
2023-03-13T17:39:48.951Z,62.49
2023-03-13T17:42:16.326Z,62.78
2023-03-13T17:44:43.601Z,62.91
2023-03-13T17:47:15.950Z,63.00
2023-03-13T17:49:44.181Z,62.32
2023-03-13T17:52:15.912Z,62.03
2023-03-13T17:54:43.681Z,62.48
2023-03-13T17:57:18.420Z,60.99
2023-03-13T17:59:46.621Z,61.17
2023-03-13T18:02:14.657Z,63.09
2023-03-13T18:04:45.793Z,62.20
2023-03-13T18:07:25.022Z,63.66
2023-03-13T18:09:52.311Z,62.48
2023-03-13T18:12:19.744Z,62.58
2023-03-13T18:14:47.127Z,63.39
2023-03-13T18:17:23.614Z,64.16
2023-03-13T18:19:52.647Z,62.58
2023-03-13T18:22:25.304Z,64.32
2023-03-13T18:24:56.357Z,64.05
2023-03-13T18:27:23.717Z,63.54
2023-03-13T18:29:50.962Z,64.28
2023-03-13T18:32:18.379Z,64.81
2023-03-13T18:34:45.725Z,64.91
2023-03-13T18:37:30.867Z,65.78
2023-03-13T18:39:58.818Z,66.03
2023-03-13T18:42:29.379Z,66.43
2023-03-13T18:44:56.663Z,66.03
2023-03-13T18:47:27.256Z,66.69
2023-03-13T18:49:55.601Z,67.03
2023-03-13T18:52:23.300Z,66.26
2023-03-13T18:54:52.918Z,66.65
2023-03-13T18:57:20.632Z,67.27
2023-03-13T18:59:48.311Z,67.42
2023-03-13T19:02:16.912Z,68.24
2023-03-13T19:04:44.615Z,66.06
2023-03-13T19:07:32.799Z,68.06
2023-03-13T19:10:01.666Z,69.55
2023-03-13T19:12:32.471Z,67.64
2023-03-13T19:15:00.021Z,67.86
2023-03-13T19:17:29.047Z,67.73
2023-03-13T19:20:01.797Z,68.79
2023-03-13T19:22:29.234Z,67.79
2023-03-13T19:24:56.763Z,68.15
2023-03-13T19:27:26.700Z,68.99
2023-03-13T19:29:54.301Z,68.29
2023-03-13T19:32:21.647Z,69.35
2023-03-13T19:34:49.106Z,67.64
2023-03-13T19:37:16.383Z,67.04
2023-03-13T19:39:43.778Z,67.48
2023-03-13T19:42:11.584Z,69.29
2023-03-13T19:44:44.374Z,66.79
2023-03-13T19:47:14.678Z,66.27
2023-03-13T19:49:41.914Z,64.51
2023-03-13T19:52:09.185Z,61.81
2023-03-13T19:54:36.575Z,61.31
2023-03-13T19:57:04.063Z,60.89
2023-03-13T19:59:35.286Z,61.55
2023-03-13T20:02:04.267Z,62.09
2023-03-13T20:04:33.148Z,61.53
2023-03-13T20:07:02.335Z,62.02
2023-03-13T20:09:30.668Z,63.33
2023-03-13T20:11:58.148Z,63.76
2023-03-13T20:14:33.206Z,63.27
2023-03-13T20:17:01.218Z,63.36
2023-03-13T20:19:29.686Z,64.41
2023-03-13T20:22:03.472Z,64.51
2023-03-13T20:24:33.924Z,64.57
2023-03-13T20:27:06.407Z,61.46
2023-03-13T20:29:33.920Z,62.06
2023-03-13T20:32:04.554Z,61.49
2023-03-13T20:34:32.196Z,63.70
2023-03-13T20:37:00.079Z,63.36
2023-03-13T20:39:27.725Z,62.17
2023-03-13T20:41:56.310Z,62.25
2023-03-13T20:44:23.739Z,60.52
2023-03-13T20:46:52.928Z,59.76
2023-03-13T20:49:20.537Z,60.13
2023-03-13T20:51:47.761Z,59.10
2023-03-13T20:54:15.381Z,58.70
2023-03-13T20:56:42.607Z,59.20
2023-03-13T20:59:10.171Z,58.88
2023-03-13T21:01:37.874Z,59.06
2023-03-13T21:04:05.321Z,59.63
2023-03-13T21:06:33.967Z,58.80
2023-03-13T21:09:04.421Z,59.19
2023-03-13T21:11:33.827Z,59.41
2023-03-13T21:14:01.056Z,60.25
2023-03-13T21:16:32.907Z,61.22
2023-03-13T21:19:02.173Z,60.04
2023-03-13T21:21:29.913Z,59.49
2023-03-13T21:23:57.220Z,59.62
2023-03-13T21:26:24.908Z,59.30
2023-03-13T21:28:53.080Z,58.78
2023-03-13T21:31:20.606Z,58.80
2023-03-13T21:33:48.590Z,58.69
2023-03-13T21:36:18.374Z,59.34
2023-03-13T21:38:48.060Z,59.41
2023-03-13T21:41:17.864Z,59.21
2023-03-13T21:43:45.985Z,58.31
2023-03-13T21:46:14.664Z,58.56
2023-03-13T21:48:43.234Z,58.91
2023-03-13T21:51:10.924Z,57.96
2023-03-13T21:53:38.454Z,59.36
2023-03-13T21:56:06.271Z,59.14
2023-03-13T21:58:33.544Z,59.05
2023-03-13T22:01:00.883Z,60.04
2023-03-13T22:03:28.268Z,60.72
2023-03-13T22:05:58.728Z,61.45
2023-03-13T22:08:26.643Z,61.19
2023-03-13T22:10:55.105Z,61.68
2023-03-13T22:13:22.971Z,62.13
2023-03-13T22:15:52.750Z,61.70
2023-03-13T22:18:23.446Z,62.60
2023-03-13T22:20:51.161Z,62.86
2023-03-13T22:23:18.587Z,62.65
2023-03-13T22:25:48.224Z,62.02
2023-03-13T22:28:15.635Z,62.18
2023-03-13T22:30:43.707Z,62.67
2023-03-13T22:33:11.609Z,62.75
2023-03-13T22:35:39.157Z,62.15
2023-03-13T22:38:06.428Z,62.43
2023-03-13T22:40:34.227Z,63.03
2023-03-13T22:43:01.462Z,63.56
2023-03-13T22:45:30.478Z,63.36
2023-03-13T22:47:57.962Z,63.26
2023-03-13T22:50:25.999Z,63.58
2023-03-13T22:52:53.438Z,64.05
2023-03-13T22:55:25.382Z,65.78
2023-03-13T22:57:52.603Z,65.47
2023-03-13T23:00:20.530Z,64.65
2023-03-13T23:02:47.767Z,63.59
2023-03-13T23:05:15.742Z,63.69
2023-03-13T23:07:44.739Z,63.58
2023-03-13T23:10:13.171Z,62.71
2023-03-13T23:12:40.397Z,63.41
2023-03-13T23:15:08.972Z,62.46
2023-03-13T23:17:38.461Z,62.59
2023-03-13T23:20:16.209Z,63.03
2023-03-13T23:22:44.344Z,61.85
2023-03-13T23:25:12.111Z,62.08
2023-03-13T23:27:43.023Z,61.88
2023-03-13T23:30:12.246Z,62.07
2023-03-13T23:32:41.601Z,61.95
2023-03-13T23:35:09.386Z,62.50
2023-03-13T23:37:36.790Z,63.07
2023-03-13T23:40:11.890Z,63.10
2023-03-13T23:42:39.584Z,63.68
2023-03-13T23:45:07.613Z,64.13
2023-03-13T23:47:35.531Z,63.35
2023-03-13T23:50:02.933Z,65.73
2023-03-13T23:52:30.829Z,64.63
2023-03-13T23:54:58.276Z,64.62
2023-03-13T23:57:32.313Z,63.58
